Time;durP1;ratioP1;P1;durP2;ratioP2;P2;SDS_P1;SDS_P2;PMS_P1;PMS_P2;Temp;Humidity;BMP_temperature;BMP_pressure;BME280_temperature;BME280_humidity;BME280_pressure;Samples;Min_cycle;Max_cycle;Signal;HPM_P1;HPM_P2
2021/10/21 00:02:13;;;;;;;5.77;5.27;;;15.00;99.90;;;;;;5030653;28;20647;-95
2021/10/21 00:04:40;;;;;;;5.47;4.80;;;15.10;99.90;;;;;;5030554;28;20714;-96
2021/10/21 00:07:07;;;;;;;5.67;4.80;;;15.00;99.90;;;;;;5030814;28;20658;-95
2021/10/21 00:09:36;;;;;;;5.50;5.10;;;15.00;99.90;;;;;;5033101;28;20661;-95
2021/10/21 00:12:04;;;;;;;5.50;5.00;;;15.00;99.90;;;;;;5030682;28;20641;-95
2021/10/21 00:14:32;;;;;;;6.80;6.20;;;14.90;99.90;;;;;;5031094;28;21045;-95
2021/10/21 00:16:59;;;;;;;5.23;4.70;;;14.90;99.90;;;;;;5029350;28;20634;-96
2021/10/21 00:19:26;;;;;;;6.40;5.63;;;14.80;99.90;;;;;;5028963;28;20631;-95
2021/10/21 00:21:53;;;;;;;5.83;5.30;;;14.80;99.90;;;;;;5034187;28;20734;-95
2021/10/21 00:24:21;;;;;;;5.90;5.40;;;14.70;99.90;;;;;;5031380;28;20661;-95
2021/10/21 00:26:49;;;;;;;6.40;5.80;;;14.70;99.90;;;;;;5030710;28;20995;-95
2021/10/21 00:29:16;;;;;;;8.87;8.10;;;14.70;99.90;;;;;;5030618;28;20631;-94
2021/10/21 00:31:43;;;;;;;8.90;8.13;;;14.70;99.90;;;;;;5026941;28;20755;-95
2021/10/21 00:34:12;;;;;;;10.43;9.40;;;14.60;99.90;;;;;;5031012;28;20665;-95
2021/10/21 00:36:39;;;;;;;10.90;9.30;;;14.70;99.90;;;;;;5025214;28;20674;-95
2021/10/21 00:39:06;;;;;;;10.10;9.20;;;14.60;99.90;;;;;;5034679;28;21036;-95
2021/10/21 00:41:32;;;;;;;9.77;8.83;;;14.60;99.90;;;;;;5030142;28;20666;-95
2021/10/21 00:44:09;;;;;;;10.50;9.40;;;14.60;99.90;;;;;;5029218;28;20638;-95
2021/10/21 00:46:37;;;;;;;9.50;8.70;;;14.60;99.90;;;;;;5012403;28;20630;-94
2021/10/21 00:49:04;;;;;;;9.13;8.33;;;14.60;99.90;;;;;;5033243;28;20609;-94
2021/10/21 00:51:32;;;;;;;8.60;7.80;;;14.50;99.90;;;;;;5031266;28;20655;-95
2021/10/21 00:53:59;;;;;;;8.03;7.33;;;14.50;99.90;;;;;;5028997;28;20718;-96
2021/10/21 00:56:27;;;;;;;9.63;8.83;;;14.50;99.90;;;;;;5031845;28;20646;-94
2021/10/21 00:58:55;;;;;;;9.70;8.87;;;14.50;99.90;;;;;;5025560;28;20673;-95
2021/10/21 01:01:24;;;;;;;9.13;8.23;;;14.50;99.90;;;;;;5030650;28;20950;-95
2021/10/21 01:03:51;;;;;;;8.07;7.50;;;14.50;99.90;;;;;;5036046;28;20638;-94
2021/10/21 01:06:20;;;;;;;9.53;8.63;;;14.50;99.90;;;;;;5036134;28;20638;-95
2021/10/21 01:08:47;;;;;;;10.10;9.13;;;14.50;99.90;;;;;;5036181;28;20627;-94
2021/10/21 01:11:15;;;;;;;13.17;9.47;;;14.40;99.90;;;;;;5035496;28;21220;-94
2021/10/21 01:13:42;;;;;;;10.40;9.50;;;14.40;99.90;;;;;;5031423;28;20896;-95
2021/10/21 01:16:11;;;;;;;11.17;9.93;;;14.40;99.90;;;;;;5027481;28;20670;-93
2021/10/21 01:18:40;;;;;;;11.17;10.17;;;14.20;99.90;;;;;;5030522;28;21145;-95
2021/10/21 01:21:10;;;;;;;10.73;9.63;;;14.30;99.90;;;;;;5028162;28;21261;-94
2021/10/21 01:23:38;;;;;;;10.50;9.60;;;14.30;99.90;;;;;;5026904;28;21087;-94
2021/10/21 01:26:09;;;;;;;11.97;10.97;;;14.30;99.90;;;;;;5030757;28;20810;-94
2021/10/21 01:28:36;;;;;;;11.23;10.23;;;14.30;99.90;;;;;;5033682;28;20638;-94
2021/10/21 01:31:04;;;;;;;11.27;10.27;;;14.20;99.90;;;;;;5037748;28;20744;-94
2021/10/21 01:33:33;;;;;;;12.37;11.27;;;14.30;99.90;;;;;;5037274;28;20639;-94
2021/10/21 01:36:00;;;;;;;13.00;11.73;;;14.20;99.90;;;;;;5029169;28;20662;-93
2021/10/21 01:38:28;;;;;;;12.47;11.40;;;14.20;99.90;;;;;;5030583;28;20635;-94
2021/10/21 01:40:55;;;;;;;14.00;12.80;;;14.20;99.90;;;;;;5029581;28;20666;-93
2021/10/21 01:43:22;;;;;;;11.43;10.43;;;14.20;99.90;;;;;;5034544;28;21041;-93
2021/10/21 01:45:51;;;;;;;12.90;11.60;;;14.20;99.90;;;;;;5033678;28;20725;-94
2021/10/21 01:48:18;;;;;;;11.30;10.40;;;14.20;99.90;;;;;;5035406;28;20982;-94
2021/10/21 01:50:46;;;;;;;12.27;11.27;;;14.20;99.90;;;;;;5033862;28;20690;-95
2021/10/21 01:53:13;;;;;;;12.23;11.03;;;14.10;99.90;;;;;;5035509;28;20650;-95
2021/10/21 01:55:43;;;;;;;12.47;11.27;;;14.20;99.90;;;;;;5039426;28;20746;-95
2021/10/21 01:58:10;;;;;;;10.47;9.60;;;14.20;99.90;;;;;;5044684;28;20684;-95
2021/10/21 02:00:37;;;;;;;12.27;11.07;;;14.10;99.90;;;;;;5035278;28;20667;-95
2021/10/21 02:03:04;;;;;;;11.30;10.17;;;14.10;99.90;;;;;;5029739;28;20635;-94
2021/10/21 02:05:32;;;;;;;10.73;9.90;;;14.10;99.90;;;;;;5016345;28;20705;-95
2021/10/21 02:08:00;;;;;;;10.43;9.57;;;14.10;99.90;;;;;;5025700;28;20754;-94
2021/10/21 02:10:28;;;;;;;10.80;9.70;;;14.10;99.90;;;;;;5036278;28;20765;-94
2021/10/21 02:12:56;;;;;;;10.37;9.57;;;14.10;99.90;;;;;;5037444;28;20671;-93
2021/10/21 02:15:24;;;;;;;9.87;8.97;;;14.10;99.90;;;;;;5042358;28;20673;-93
2021/10/21 02:17:50;;;;;;;9.00;8.30;;;14.10;99.90;;;;;;5044287;28;20673;-93
2021/10/21 02:20:18;;;;;;;9.50;8.60;;;14.20;99.90;;;;;;5042054;28;20678;-93
2021/10/21 02:22:49;;;;;;;10.10;9.30;;;14.10;99.90;;;;;;5051433;28;20815;-94
2021/10/21 02:25:16;;;;;;;9.13;8.33;;;14.10;99.90;;;;;;5044378;28;20623;-94
2021/10/21 02:27:43;;;;;;;8.40;7.80;;;14.20;99.90;;;;;;5046024;28;20638;-94
2021/10/21 02:30:13;;;;;;;9.50;8.60;;;14.20;99.90;;;;;;5030783;28;20669;-93
2021/10/21 02:32:41;;;;;;;9.07;8.47;;;14.20;99.90;;;;;;5032144;28;21043;-95
2021/10/21 02:35:10;;;;;;;8.23;7.63;;;14.20;99.90;;;;;;5032430;28;20683;-94
2021/10/21 02:37:38;;;;;;;9.63;7.93;;;14.20;99.90;;;;;;5030047;28;20651;-94
2021/10/21 02:40:08;;;;;;;8.40;7.63;;;14.20;99.90;;;;;;5031505;28;20647;-95
2021/10/21 02:42:36;;;;;;;7.70;6.97;;;14.20;99.90;;;;;;5029991;28;20693;-93
2021/10/21 02:45:06;;;;;;;8.10;6.97;;;14.20;99.90;;;;;;5029329;28;20654;-93
2021/10/21 02:47:34;;;;;;;7.77;7.07;;;14.30;99.90;;;;;;5032593;28;20755;-92
2021/10/21 02:50:01;;;;;;;8.07;7.37;;;14.30;99.90;;;;;;5033321;28;20677;-92
2021/10/21 02:52:29;;;;;;;8.17;7.37;;;14.40;99.90;;;;;;5030554;28;20723;-93
2021/10/21 02:54:56;;;;;;;7.57;6.90;;;14.40;99.90;;;;;;5029551;28;20758;-91
2021/10/21 02:57:23;;;;;;;8.37;7.57;;;14.50;99.90;;;;;;5032938;28;20739;-92
2021/10/21 02:59:50;;;;;;;12.30;8.30;;;14.40;99.90;;;;;;5028737;28;21559;-92
2021/10/21 03:02:17;;;;;;;7.90;7.30;;;14.50;99.90;;;;;;5035347;28;20617;-92
2021/10/21 03:04:45;;;;;;;7.20;6.60;;;14.40;99.90;;;;;;5037062;28;20671;-93
2021/10/21 03:07:14;;;;;;;7.63;7.03;;;14.60;99.90;;;;;;5016448;28;20638;-93
2021/10/21 03:09:41;;;;;;;8.67;7.97;;;14.50;99.90;;;;;;5037015;28;20665;-92
2021/10/21 03:12:08;;;;;;;8.57;7.77;;;14.60;99.90;;;;;;5032474;28;20638;-91
2021/10/21 03:14:35;;;;;;;6.43;5.80;;;14.60;99.90;;;;;;5025207;28;20628;-91
2021/10/21 03:17:02;;;;;;;7.70;7.20;;;14.70;99.90;;;;;;5029731;28;20801;-91
2021/10/21 03:19:28;;;;;;;7.03;6.40;;;14.60;99.90;;;;;;5034683;28;20725;-91
2021/10/21 03:21:57;;;;;;;7.90;7.20;;;14.70;99.90;;;;;;5028671;28;20644;-92
2021/10/21 03:24:24;;;;;;;8.73;7.30;;;14.70;99.90;;;;;;5030901;28;21412;-92
2021/10/21 03:26:51;;;;;;;7.63;6.80;;;14.70;99.90;;;;;;5031035;28;20657;-91
2021/10/21 03:29:18;;;;;;;7.23;6.63;;;14.80;99.90;;;;;;5030888;28;20635;-92
2021/10/21 03:31:45;;;;;;;6.37;5.77;;;14.90;99.90;;;;;;5030180;28;20635;-92
2021/10/21 03:34:11;;;;;;;6.37;5.87;;;15.00;99.90;;;;;;5026736;28;20727;-92
2021/10/21 03:36:39;;;;;;;5.10;4.60;;;14.90;99.90;;;;;;5010915;28;20656;-92
2021/10/21 03:39:07;;;;;;;5.07;4.67;;;15.10;99.90;;;;;;5032379;28;20655;-91
2021/10/21 03:41:34;;;;;;;4.10;3.80;;;15.10;99.90;;;;;;5023002;28;21204;-91
2021/10/21 03:44:01;;;;;;;4.20;3.83;;;15.20;99.90;;;;;;5029899;28;21211;-91
2021/10/21 03:46:28;;;;;;;3.40;3.00;;;15.20;99.90;;;;;;5009579;28;21247;-92
2021/10/21 03:48:55;;;;;;;3.10;2.90;;;15.20;99.90;;;;;;5031269;28;20635;-92
2021/10/21 03:51:22;;;;;;;3.03;2.60;;;15.30;99.90;;;;;;5020494;28;20999;-93
2021/10/21 03:53:49;;;;;;;2.03;1.93;;;15.20;99.90;;;;;;5030678;28;20631;-93
2021/10/21 03:56:17;;;;;;;2.20;2.00;;;15.30;99.90;;;;;;5030572;28;20669;-93
2021/10/21 03:58:44;;;;;;;2.60;2.00;;;15.40;99.90;;;;;;5028987;28;20643;-92
2021/10/21 04:01:11;;;;;;;3.20;1.87;;;15.30;99.90;;;;;;5029114;28;20773;-92
2021/10/21 04:03:38;;;;;;;2.90;1.40;;;15.30;99.90;;;;;;5027816;28;20639;-92
2021/10/21 04:06:05;;;;;;;3.03;1.67;;;15.50;99.90;;;;;;5023503;28;20664;-91
2021/10/21 04:08:32;;;;;;;1.83;1.20;;;15.50;99.90;;;;;;5029027;28;20647;-92
2021/10/21 04:11:00;;;;;;;1.40;1.30;;;15.50;99.90;;;;;;5030253;28;20666;-92
2021/10/21 04:13:28;;;;;;;1.50;1.30;;;15.50;99.90;;;;;;5026828;28;20611;-94
2021/10/21 04:15:55;;;;;;;1.63;1.47;;;15.40;99.90;;;;;;5030653;28;21213;-93
2021/10/21 04:18:22;;;;;;;1.20;1.10;;;15.40;99.90;;;;;;5035155;28;20651;-94
2021/10/21 04:20:50;;;;;;;1.07;0.90;;;15.50;99.90;;;;;;5027862;28;20654;-94
2021/10/21 04:23:17;;;;;;;1.50;0.80;;;15.50;99.90;;;;;;5047410;28;20633;-94
2021/10/21 04:25:44;;;;;;;1.70;1.60;;;15.50;99.90;;;;;;5054876;28;20647;-95
2021/10/21 04:28:11;;;;;;;1.90;1.60;;;15.50;99.90;;;;;;5055306;28;20623;-96
2021/10/21 04:30:41;;;;;;;2.50;1.70;;;15.50;99.90;;;;;;5052377;28;20685;-94
2021/10/21 04:35:50;;;;;;;1.87;1.00;;;15.50;99.90;;;;;;5062341;28;20753;-94
2021/10/21 04:38:24;;;;;;;2.73;1.00;;;15.50;99.90;;;;;;5054271;28;21225;-95
2021/10/21 04:40:51;;;;;;;1.77;0.97;;;15.30;99.90;;;;;;5054261;28;20661;-96
2021/10/21 04:43:18;;;;;;;2.10;0.60;;;15.50;99.90;;;;;;5042783;28;20638;-95
2021/10/21 04:45:47;;;;;;;2.10;1.10;;;15.40;99.90;;;;;;5042159;28;21057;-96
2021/10/21 04:48:15;;;;;;;2.33;1.00;;;15.30;99.90;;;;;;5038112;28;20686;-96
2021/10/21 04:50:44;;;;;;;1.00;0.80;;;15.40;99.90;;;;;;5041142;28;20730;-96
2021/10/21 04:53:11;;;;;;;0.90;0.80;;;15.30;99.90;;;;;;5038978;28;20697;-92
2021/10/21 04:55:39;;;;;;;1.80;0.77;;;15.20;99.90;;;;;;5029457;28;20662;-94
2021/10/21 04:58:09;;;;;;;4.53;1.10;;;15.10;99.90;;;;;;5033908;28;20621;-93
2021/10/21 05:00:37;;;;;;;2.67;1.03;;;15.10;99.90;;;;;;5031122;28;20648;-96
2021/10/21 05:03:11;;;;;;;2.03;0.80;;;15.00;99.90;;;;;;5033920;28;21048;-96
2021/10/21 05:05:38;;;;;;;2.67;0.90;;;14.90;99.90;;;;;;5029698;28;20666;-94
2021/10/21 05:08:11;;;;;;;4.53;1.03;;;14.90;99.90;;;;;;5029530;28;20632;-95
2021/10/21 05:10:38;;;;;;;6.93;0.90;;;14.80;99.90;;;;;;5032339;28;20726;-96
2021/10/21 05:13:10;;;;;;;1.97;1.40;;;14.80;99.90;;;;;;5036574;28;20669;-94
2021/10/21 05:15:42;;;;;;;4.90;1.17;;;14.80;99.90;;;;;;5031344;28;21217;-96
2021/10/21 05:18:21;;;;;;;1.87;1.13;;;14.60;99.90;;;;;;5044348;28;20718;-95
2021/10/21 05:20:49;;;;;;;6.23;1.30;;;14.50;99.90;;;;;;5046421;28;20611;-95
2021/10/21 05:23:22;;;;;;;2.00;0.90;;;14.50;99.90;;;;;;5058313;28;20623;-96
2021/10/21 05:25:52;;;;;;;5.40;1.43;;;14.40;99.90;;;;;;5049466;28;20678;-95
2021/10/21 05:28:22;;;;;;;2.53;1.30;;;14.40;99.90;;;;;;5037722;28;20725;-95
2021/10/21 05:30:51;;;;;;;3.27;1.00;;;14.40;99.90;;;;;;5036953;28;20662;-95
2021/10/21 05:33:30;;;;;;;5.73;2.17;;;14.30;99.90;;;;;;5046861;28;20631;-95
2021/10/21 05:36:09;;;;;;;1.80;1.03;;;14.30;99.90;;;;;;5054458;28;20705;-95
2021/10/21 05:38:39;;;;;;;2.33;1.03;;;14.30;99.90;;;;;;5039984;28;20618;-95
2021/10/21 05:41:20;;;;;;;4.80;1.00;;;14.20;99.90;;;;;;5035381;28;20631;-96
2021/10/21 05:43:47;;;;;;;1.90;0.67;;;14.10;99.90;;;;;;5035722;28;20669;-96
2021/10/21 05:49:23;;;;;;;1.60;0.60;;;14.00;99.90;;;;;;5042278;28;21253;-95
2021/10/21 05:51:51;;;;;;;4.60;0.80;;;14.10;99.90;;;;;;5025824;28;20995;-95
2021/10/21 05:54:18;;;;;;;5.57;1.20;;;14.00;99.90;;;;;;5031563;28;20643;-96
2021/10/21 05:57:01;;;;;;;2.23;1.30;;;14.00;99.90;;;;;;5035510;28;20693;-96
2021/10/21 05:59:29;;;;;;;2.33;1.10;;;14.00;99.90;;;;;;5035030;28;20657;-96
2021/10/21 06:01:58;;;;;;;5.67;1.33;;;13.80;99.90;;;;;;5033909;28;21028;-95
2021/10/21 06:04:29;;;;;;;2.60;1.27;;;13.90;99.90;;;;;;5037847;28;20626;-94
2021/10/21 06:07:04;;;;;;;4.27;1.07;;;14.00;99.90;;;;;;5029441;28;21217;-95
2021/10/21 06:09:33;;;;;;;4.70;1.47;;;13.90;99.90;;;;;;5037993;28;20688;-96
2021/10/21 06:12:01;;;;;;;5.63;1.63;;;13.90;99.90;;;;;;5020248;28;20635;-95
2021/10/21 06:14:31;;;;;;;5.43;2.13;;;13.90;99.90;;;;;;5038159;28;20722;-96
2021/10/21 06:16:58;;;;;;;5.90;1.37;;;13.90;99.90;;;;;;5039836;28;20689;-95
2021/10/21 06:19:28;;;;;;;4.33;1.70;;;13.80;99.90;;;;;;5055180;28;20651;-95
2021/10/21 06:22:00;;;;;;;3.37;1.20;;;13.80;99.90;;;;;;5045595;28;20697;-95
2021/10/21 06:24:29;;;;;;;6.23;1.60;;;13.80;99.90;;;;;;5055945;28;20614;-96
2021/10/21 06:26:57;;;;;;;2.67;1.10;;;13.80;99.90;;;;;;5057842;28;20664;-96
2021/10/21 06:29:24;;;;;;;7.03;1.67;;;13.80;99.90;;;;;;5055188;28;20622;-95
2021/10/21 06:31:53;;;;;;;3.43;1.87;;;13.80;99.90;;;;;;5056609;28;20630;-95
2021/10/21 06:34:27;;;;;;;8.40;2.40;;;13.70;99.90;;;;;;5046880;28;20985;-95
2021/10/21 06:36:57;;;;;;;3.60;1.80;;;13.80;99.90;;;;;;5035281;28;21225;-96
2021/10/21 06:39:26;;;;;;;4.50;1.60;;;13.70;99.90;;;;;;5037627;28;20634;-95
2021/10/21 06:41:54;;;;;;;5.97;1.10;;;13.70;99.90;;;;;;5039557;28;20643;-95
2021/10/21 06:44:28;;;;;;;3.57;1.10;;;13.60;99.90;;;;;;5046339;28;20717;-96
2021/10/21 06:46:55;;;;;;;5.57;1.50;;;13.60;99.90;;;;;;5043603;28;20672;-95
2021/10/21 06:49:23;;;;;;;4.90;1.50;;;13.70;99.90;;;;;;5038556;28;20659;-96
2021/10/21 06:52:00;;;;;;;5.33;1.30;;;13.60;99.90;;;;;;5046869;28;20631;-96
2021/10/21 06:54:50;;;;;;;6.83;2.30;;;13.60;99.90;;;;;;5046292;28;20631;-96
2021/10/21 06:57:23;;;;;;;6.17;1.83;;;13.70;99.90;;;;;;5032629;28;20667;-96
2021/10/21 06:59:54;;;;;;;5.70;1.40;;;13.70;99.90;;;;;;5050980;28;20638;-96
2021/10/21 07:07:43;;;;;;;4.60;1.50;;;13.80;99.90;;;;;;5036469;28;20638;-94
2021/10/21 07:10:13;;;;;;;5.70;1.27;;;13.90;99.90;;;;;;5028344;28;20648;-93
2021/10/21 07:12:41;;;;;;;5.20;1.87;;;14.00;99.90;;;;;;5029060;28;21165;-95
2021/10/21 07:15:09;;;;;;;10.03;2.40;;;14.20;99.90;;;;;;5031049;28;20639;-95
2021/10/21 07:17:37;;;;;;;2.43;1.33;;;14.20;99.90;;;;;;5032133;28;21214;-93
2021/10/21 07:20:06;;;;;;;2.60;1.10;;;14.20;99.90;;;;;;5027584;28;20665;-93
2021/10/21 07:22:32;;;;;;;7.20;1.53;;;14.30;99.90;;;;;;5032448;28;20647;-94
2021/10/21 07:24:59;;;;;;;9.53;1.40;;;14.40;99.90;;;;;;5029246;28;20634;-93
2021/10/21 07:27:30;;;;;;;6.83;1.33;;;14.50;99.90;;;;;;5031228;28;20754;-95
2021/10/21 07:29:57;;;;;;;8.33;1.70;;;14.40;99.90;;;;;;5024706;28;20665;-94
2021/10/21 07:32:26;;;;;;;3.70;1.40;;;14.50;99.90;;;;;;5010708;28;20630;-94
2021/10/21 07:34:54;;;;;;;4.27;1.10;;;14.50;99.90;;;;;;5033613;28;20685;-94
2021/10/21 07:37:21;;;;;;;4.43;1.30;;;14.40;99.90;;;;;;5027174;28;20674;-94
2021/10/21 07:39:48;;;;;;;3.17;1.03;;;14.40;99.90;;;;;;5026374;28;20648;-93
2021/10/21 07:42:16;;;;;;;3.90;1.60;;;14.50;99.90;;;;;;5030787;28;20664;-95
2021/10/21 07:44:46;;;;;;;3.27;1.30;;;14.40;99.90;;;;;;5030904;28;21220;-93
2021/10/21 07:47:13;;;;;;;4.47;1.10;;;14.40;99.90;;;;;;5032107;28;20674;-95
2021/10/21 07:49:41;;;;;;;2.73;1.20;;;14.40;99.90;;;;;;5030925;28;20662;-96
2021/10/21 07:52:11;;;;;;;3.63;1.33;;;14.40;99.90;;;;;;5032394;28;20726;-95
2021/10/21 07:54:38;;;;;;;5.90;1.00;;;14.50;99.90;;;;;;5038248;28;20639;-96
2021/10/21 07:57:13;;;;;;;4.20;1.20;;;14.50;99.90;;;;;;5044957;28;20786;-96
2021/10/21 07:59:41;;;;;;;1.97;0.90;;;14.50;99.90;;;;;;5036962;28;20626;-95
2021/10/21 08:02:16;;;;;;;3.10;1.20;;;14.50;99.90;;;;;;5034770;28;20631;-96
2021/10/21 08:04:45;;;;;;;1.70;0.87;;;14.40;99.90;;;;;;5026420;28;20638;-96
2021/10/21 08:07:18;;;;;;;5.43;1.07;;;14.30;99.90;;;;;;5039526;28;20746;-96
2021/10/21 08:09:46;;;;;;;2.73;0.70;;;14.50;99.90;;;;;;5052006;28;20631;-94
2021/10/21 08:12:16;;;;;;;7.10;1.20;;;14.40;99.90;;;;;;5056751;28;20630;-95
2021/10/21 08:14:50;;;;;;;7.50;0.97;;;14.40;99.90;;;;;;5058057;28;20705;-96
2021/10/21 08:17:31;;;;;;;3.70;0.97;;;14.40;99.90;;;;;;5041317;28;20690;-95
2021/10/21 08:19:59;;;;;;;2.73;1.57;;;14.50;99.90;;;;;;5038661;28;20706;-96
2021/10/21 08:22:33;;;;;;;2.60;0.80;;;14.60;99.90;;;;;;5037547;28;20661;-96
2021/10/21 08:25:24;;;;;;;6.90;1.30;;;14.60;99.90;;;;;;5033413;28;20730;-96
2021/10/21 08:27:52;;;;;;;3.07;1.03;;;14.70;99.90;;;;;;5041819;28;20731;-96
2021/10/21 08:30:23;;;;;;;2.00;0.63;;;14.70;99.90;;;;;;5030086;28;20631;-96
2021/10/21 08:33:00;;;;;;;4.00;0.90;;;14.90;99.90;;;;;;5044084;28;20638;-96
2021/10/21 08:35:30;;;;;;;2.83;0.87;;;15.00;99.90;;;;;;5024081;28;20642;-96
2021/10/21 08:37:59;;;;;;;2.40;0.50;;;15.10;99.90;;;;;;5022350;28;20651;-93
2021/10/21 08:40:26;;;;;;;7.30;0.87;;;14.80;99.90;;;;;;5034105;28;20634;-94
2021/10/21 08:43:01;;;;;;;4.97;0.83;;;15.00;99.90;;;;;;5045277;28;20708;-95
2021/10/21 08:45:47;;;;;;;4.53;0.70;;;14.90;99.90;;;;;;5033821;28;20681;-94
2021/10/21 08:48:28;;;;;;;3.30;1.00;;;14.80;99.90;;;;;;5034565;28;20703;-95
2021/10/21 08:51:08;;;;;;;1.33;0.50;;;14.90;99.90;;;;;;5044009;28;20634;-95
2021/10/21 08:53:39;;;;;;;2.63;1.00;;;14.90;99.90;;;;;;5038021;28;20623;-94
2021/10/21 08:56:12;;;;;;;3.30;0.67;;;15.00;99.90;;;;;;5039012;28;20764;-94
2021/10/21 08:59:01;;;;;;;3.13;0.70;;;14.70;99.90;;;;;;5032838;28;20669;-95
2021/10/21 09:01:37;;;;;;;3.03;0.70;;;14.60;99.90;;;;;;5028661;28;20673;-95
2021/10/21 09:09:54;;;;;;;1.53;0.60;;;13.90;99.90;;;;;;5050735;28;20655;-96
2021/10/21 09:12:23;;;;;;;3.13;0.70;;;14.30;99.90;;;;;;5049440;28;20651;-95
2021/10/21 09:14:54;;;;;;;2.60;0.90;;;14.40;99.90;;;;;;5056136;28;20713;-96
2021/10/21 09:17:28;;;;;;;1.90;0.63;;;14.70;99.90;;;;;;5044552;28;20655;-95
2021/10/21 09:19:57;;;;;;;1.63;0.73;;;14.60;99.90;;;;;;5041483;28;20634;-95
2021/10/21 09:22:27;;;;;;;1.87;0.60;;;14.80;99.90;;;;;;5048267;28;20662;-95
2021/10/21 09:25:09;;;;;;;1.93;0.50;;;14.80;99.90;;;;;;5049230;28;20669;-96
2021/10/21 09:27:38;;;;;;;1.80;0.47;;;14.50;99.90;;;;;;5049389;28;20642;-96
2021/10/21 09:30:09;;;;;;;3.60;0.90;;;14.30;99.90;;;;;;5050683;28;20628;-96
2021/10/21 09:32:38;;;;;;;2.10;0.60;;;14.40;99.90;;;;;;5052916;28;20610;-96
2021/10/21 09:35:14;;;;;;;1.13;0.40;;;14.80;99.90;;;;;;5051174;28;20623;-95
2021/10/21 09:37:44;;;;;;;2.83;0.60;;;14.90;99.90;;;;;;5050512;28;20678;-96
2021/10/21 09:40:15;;;;;;;2.10;0.50;;;14.60;99.90;;;;;;5058679;28;20633;-95
2021/10/21 09:42:46;;;;;;;0.83;0.53;;;14.40;99.90;;;;;;5059444;28;20610;-96
2021/10/21 09:45:17;;;;;;;1.70;0.60;;;14.70;99.90;;;;;;5056220;28;20650;-96
2021/10/21 09:47:46;;;;;;;1.53;0.40;;;14.80;99.90;;;;;;5067422;28;20723;-96
2021/10/21 09:50:21;;;;;;;0.60;0.33;;;14.90;99.90;;;;;;5063089;28;20640;-96
2021/10/21 09:53:13;;;;;;;1.20;0.37;;;14.90;99.90;;;;;;5072588;28;20730;-96
2021/10/21 09:56:08;;;;;;;2.93;0.60;;;14.30;99.90;;;;;;5056873;28;20687;-95
2021/10/21 10:04:25;;;;;;;1.33;0.40;;;13.80;99.90;;;;;;5051008;28;20603;-96
2021/10/21 10:07:02;;;;;;;0.90;0.40;;;14.10;99.90;;;;;;5055923;28;20631;-96
2021/10/21 10:09:33;;;;;;;0.77;0.53;;;14.60;99.90;;;;;;5064046;28;20623;-96
2021/10/21 10:12:05;;;;;;;2.17;0.63;;;14.70;99.90;;;;;;5053498;28;20658;-96
2021/10/21 10:14:37;;;;;;;0.60;0.30;;;15.00;99.00;;;;;;5059647;28;20611;-96
2021/10/21 10:17:13;;;;;;;2.30;0.67;;;15.10;98.20;;;;;;5060302;28;20650;-95
2021/10/21 10:19:50;;;;;;;0.53;0.40;;;15.20;99.00;;;;;;5057604;28;20610;-96
2021/10/21 10:22:35;;;;;;;2.63;1.10;;;15.50;96.90;;;;;;5057493;28;20634;-95
2021/10/21 10:25:37;;;;;;;1.13;0.60;;;15.60;96.50;;;;;;5060041;28;20631;-96
2021/10/21 10:28:26;;;;;;;3.90;0.60;;;15.50;95.00;;;;;;5070540;28;20621;-96
2021/10/21 10:31:12;;;;;;;1.70;0.50;;;15.90;93.30;;;;;;5062171;28;20655;-96
2021/10/21 10:33:59;;;;;;;1.83;0.40;;;15.70;94.60;;;;;;5053762;28;20654;-96
2021/10/21 10:36:41;;;;;;;1.13;0.73;;;15.80;94.80;;;;;;5061299;28;20606;-96
2021/10/21 10:48:55;;;;;;;0.60;0.50;;;15.70;94.80;;;;;;5079489;28;20621;-96
2021/10/21 10:51:52;;;;;;;1.80;0.80;;;15.80;94.10;;;;;;5079746;28;20665;-95
2021/10/21 10:55:01;;;;;;;2.73;0.50;;;15.70;94.40;;;;;;5063357;28;20605;-95
2021/10/21 11:00:58;;;;;;;0.93;0.43;;;15.90;94.00;;;;;;5076285;28;20750;-95
2021/10/21 11:06:32;;;;;;;1.20;0.70;;;15.80;94.10;;;;;;5090802;28;20613;-96
2021/10/21 11:09:05;;;;;;;3.67;1.20;;;16.30;94.00;;;;;;5082078;28;20700;-95
2021/10/21 11:11:41;;;;;;;2.73;0.90;;;16.90;93.20;;;;;;5092670;28;20688;-96
2021/10/21 11:14:09;;;;;;;3.40;0.87;;;17.20;90.70;;;;;;5097560;28;20716;-96
2021/10/21 11:17:12;;;;;;;1.83;0.50;;;16.80;90.90;;;;;;5080863;28;20886;-95
2021/10/21 11:20:01;;;;;;;1.03;0.70;;;16.50;91.90;;;;;;5075777;28;20613;-96
2021/10/21 11:22:43;;;;;;;2.60;0.73;;;16.30;92.40;;;;;;5078456;28;20626;-96
2021/10/21 11:25:15;;;;;;;2.60;0.63;;;16.30;92.20;;;;;;5096217;28;21218;-96
2021/10/21 11:27:46;;;;;;;1.60;0.70;;;16.40;90.70;;;;;;5090681;28;20602;-96
2021/10/21 11:30:24;;;;;;;3.30;0.90;;;16.10;91.20;;;;;;5083931;28;20625;-95
2021/10/21 11:32:59;;;;;;;5.53;0.63;;;16.10;91.70;;;;;;5085086;28;20613;-95
2021/10/21 11:35:30;;;;;;;2.00;0.70;;;16.50;90.20;;;;;;5084716;28;20636;-96
2021/10/21 11:37:59;;;;;;;2.13;0.87;;;16.60;90.70;;;;;;5094691;28;20622;-96
2021/10/21 11:40:32;;;;;;;1.80;0.73;;;16.60;90.00;;;;;;5100809;28;20674;-96
2021/10/21 11:43:02;;;;;;;1.77;0.50;;;16.90;88.30;;;;;;5098861;28;20683;-95
2021/10/21 11:45:34;;;;;;;5.40;0.60;;;16.60;85.80;;;;;;5109641;28;20617;-95
2021/10/21 11:48:05;;;;;;;2.73;0.67;;;16.90;85.50;;;;;;5102575;28;20640;-96
2021/10/21 11:50:45;;;;;;;1.73;0.60;;;17.20;82.10;;;;;;5095590;28;20732;-96
2021/10/21 11:53:15;;;;;;;2.50;0.80;;;17.30;80.40;;;;;;5082064;28;20660;-96
2021/10/21 11:55:47;;;;;;;2.20;0.60;;;17.80;79.70;;;;;;5074868;28;20632;-96
2021/10/21 11:58:22;;;;;;;1.40;0.70;;;18.00;79.70;;;;;;5094283;28;20636;-96
2021/10/21 12:00:58;;;;;;;3.07;0.63;;;17.20;81.70;;;;;;5092052;28;20774;-95
2021/10/21 12:03:35;;;;;;;2.93;0.80;;;17.80;79.70;;;;;;5091116;28;20972;-96
2021/10/21 12:06:15;;;;;;;2.50;1.00;;;18.00;80.10;;;;;;5095347;28;20617;-96
2021/10/21 12:08:54;;;;;;;6.83;0.70;;;18.00;80.50;;;;;;5091675;28;20635;-96
2021/10/21 12:11:31;;;;;;;1.90;0.80;;;17.70;80.00;;;;;;5085570;28;20733;-96
2021/10/21 12:14:04;;;;;;;1.20;0.80;;;17.10;83.30;;;;;;5092694;28;20612;-96
2021/10/21 12:19:28;;;;;;;0.87;0.63;;;16.80;87.70;;;;;;5087044;28;20607;-96
2021/10/21 12:22:05;;;;;;;5.63;1.00;;;17.70;81.90;;;;;;5094087;28;20667;-96
2021/10/21 12:24:34;;;;;;;3.23;0.93;;;18.20;81.60;;;;;;5077032;28;21683;-96
2021/10/21 12:27:04;;;;;;;1.67;0.60;;;18.90;76.00;;;;;;5082244;28;20684;-96
2021/10/21 12:29:41;;;;;;;1.60;0.70;;;19.10;75.60;;;;;;5080198;28;20625;-96
2021/10/21 12:32:13;;;;;;;4.30;0.87;;;18.60;76.40;;;;;;5090350;28;20652;-96
2021/10/21 12:34:42;;;;;;;1.23;0.70;;;18.00;78.70;;;;;;5082906;28;20621;-96
2021/10/21 12:37:23;;;;;;;0.77;0.47;;;19.10;78.20;;;;;;5082130;28;20633;-96
2021/10/21 12:42:38;;;;;;;5.70;0.70;;;18.80;73.30;;;;;;5079132;28;20660;-96
2021/10/21 12:45:11;;;;;;;4.17;0.80;;;18.50;75.10;;;;;;5083121;28;20607;-96
2021/10/21 12:47:41;;;;;;;2.33;1.03;;;19.20;74.30;;;;;;5081193;28;21223;-96
2021/10/21 12:50:15;;;;;;;0.73;0.53;;;19.90;72.40;;;;;;5083696;28;20644;-96
2021/10/21 12:52:46;;;;;;;4.07;1.10;;;20.00;72.30;;;;;;5068755;28;20618;-96
2021/10/21 12:55:19;;;;;;;2.90;1.03;;;20.40;70.00;;;;;;5082038;28;20641;-96
2021/10/21 12:57:49;;;;;;;2.17;1.10;;;21.00;69.90;;;;;;5086574;28;20629;-96
2021/10/21 13:00:26;;;;;;;0.83;0.50;;;20.40;69.70;;;;;;5091092;28;20636;-95
2021/10/21 13:03:10;;;;;;;2.17;0.90;;;21.00;68.80;;;;;;5076382;28;20703;-96
2021/10/21 13:05:58;;;;;;;2.30;0.80;;;21.60;68.40;;;;;;5082025;28;20708;-96
2021/10/21 13:09:09;;;;;;;1.10;0.73;;;21.20;66.80;;;;;;5081519;28;20651;-96
2021/10/21 13:11:57;;;;;;;1.80;0.70;;;20.60;65.60;;;;;;5078268;28;20660;-96
2021/10/21 13:14:41;;;;;;;1.77;0.63;;;19.70;67.10;;;;;;5084717;28;20628;-94
2021/10/21 13:17:19;;;;;;;2.43;0.87;;;18.70;70.00;;;;;;5098734;28;20617;-95
2021/10/21 13:19:55;;;;;;;3.13;0.67;;;19.10;72.00;;;;;;5090568;28;20613;-96
2021/10/21 13:22:40;;;;;;;1.37;0.70;;;19.60;70.70;;;;;;5091282;28;20701;-95
2021/10/21 13:25:10;;;;;;;1.97;1.00;;;19.80;71.70;;;;;;5087141;28;20624;-96
2021/10/21 13:27:53;;;;;;;1.60;0.57;;;20.30;70.60;;;;;;5090240;28;20720;-95
2021/10/21 13:30:31;;;;;;;1.83;0.63;;;20.10;71.10;;;;;;5129065;22;20633;-96
2021/10/21 13:33:16;;;;;;;1.60;0.63;;;20.10;69.80;;;;;;5084126;28;20686;-95
2021/10/21 13:35:47;;;;;;;3.10;0.70;;;20.40;70.50;;;;;;5098258;28;20612;-96
2021/10/21 13:38:23;;;;;;;3.43;1.30;;;20.30;69.50;;;;;;5092077;28;20731;-96
2021/10/21 13:40:53;;;;;;;1.60;0.67;;;19.70;69.10;;;;;;5090328;28;20648;-96
2021/10/21 13:43:57;;;;;;;1.47;1.00;;;19.70;68.60;;;;;;5088087;28;20620;-95
2021/10/21 13:46:41;;;;;;;2.90;0.90;;;19.70;70.20;;;;;;5091345;28;20621;-95
2021/10/21 13:49:11;;;;;;;1.50;0.90;;;20.30;68.80;;;;;;5084974;28;21179;-95
2021/10/21 13:51:56;;;;;;;2.37;0.60;;;20.10;66.70;;;;;;5070079;28;20605;-96
2021/10/21 13:54:37;;;;;;;4.07;0.83;;;19.90;66.50;;;;;;5088001;28;20633;-96